Time;durP1;ratioP1;P1;durP2;ratioP2;P2;SDS_P1;SDS_P2;PMS_P1;PMS_P2;Temp;Humidity;BMP_temperature;BMP_pressure;BME280_temperature;BME280_humidity;BME280_pressure;Samples;Min_cycle;Max_cycle;Signal;HPM_P1;HPM_P2
2023/01/23 00:01:36;;;;;;;14.93;7.07;;;2.60;99.90;;;;;;6124665;23;20017;-80
2023/01/23 00:04:03;;;;;;;13.60;7.55;;;2.70;99.90;;;;;;6123214;23;20017;-80
2023/01/23 00:06:29;;;;;;;13.40;7.63;;;2.60;99.90;;;;;;6148964;23;20017;-80
2023/01/23 00:08:55;;;;;;;13.32;6.65;;;2.70;99.90;;;;;;6148400;23;20021;-80
2023/01/23 00:11:23;;;;;;;15.07;7.47;;;2.70;99.90;;;;;;6148280;23;20075;-80
2023/01/23 00:13:49;;;;;;;14.32;7.15;;;2.70;99.90;;;;;;6124233;23;20024;-80
2023/01/23 00:16:20;;;;;;;9.30;6.28;;;2.70;99.90;;;;;;6120790;23;20014;-80
2023/01/23 00:18:47;;;;;;;15.85;6.78;;;2.70;99.90;;;;;;6149981;23;20083;-80
2023/01/23 00:21:15;;;;;;;16.15;7.72;;;2.70;99.90;;;;;;6123564;23;20009;-80
2023/01/23 00:23:45;;;;;;;14.43;7.05;;;2.70;99.90;;;;;;6147733;23;20072;-80
2023/01/23 00:26:14;;;;;;;15.05;7.25;;;2.70;99.90;;;;;;6145669;23;20020;-81
2023/01/23 00:28:42;;;;;;;14.57;7.88;;;2.70;99.90;;;;;;6148927;23;20013;-80
2023/01/23 00:31:17;;;;;;;18.05;8.43;;;2.70;99.90;;;;;;6147908;23;20024;-80
2023/01/23 00:33:43;;;;;;;10.60;7.75;;;2.70;99.90;;;;;;6148292;23;20346;-80
2023/01/23 00:36:10;;;;;;;12.25;7.82;;;2.70;99.90;;;;;;6123836;23;20017;-80
2023/01/23 00:38:36;;;;;;;13.07;8.05;;;2.80;99.90;;;;;;6124650;23;20024;-80
2023/01/23 00:41:02;;;;;;;13.57;7.60;;;2.70;99.90;;;;;;6124149;23;20013;-80
2023/01/23 00:43:29;;;;;;;12.65;7.70;;;2.70;99.90;;;;;;6124370;23;20072;-80
2023/01/23 00:45:54;;;;;;;14.93;9.00;;;2.80;99.90;;;;;;6149254;23;20018;-80
2023/01/23 00:48:20;;;;;;;14.05;8.18;;;2.70;99.90;;;;;;6150213;23;20021;-80
2023/01/23 00:50:46;;;;;;;16.05;8.10;;;2.70;99.90;;;;;;6149686;23;20017;-81
2023/01/23 00:53:14;;;;;;;14.57;8.18;;;2.70;99.90;;;;;;6149511;23;20014;-80
2023/01/23 00:55:40;;;;;;;22.38;8.98;;;2.70;99.90;;;;;;6124432;23;20013;-80
2023/01/23 00:58:07;;;;;;;18.63;9.55;;;2.70;99.90;;;;;;6125870;23;20009;-80
2023/01/23 01:00:34;;;;;;;17.17;9.27;;;2.70;99.90;;;;;;6148994;23;20033;-80
2023/01/23 01:02:59;;;;;;;13.27;8.82;;;2.50;99.90;;;;;;6149351;23;20028;-80
2023/01/23 01:05:26;;;;;;;15.02;9.35;;;2.70;99.90;;;;;;6147700;23;20112;-80
2023/01/23 01:07:51;;;;;;;17.60;9.00;;;2.60;99.90;;;;;;6124972;23;20076;-80
2023/01/23 01:10:17;;;;;;;15.93;9.27;;;2.60;99.90;;;;;;6124665;23;20017;-80
2023/01/23 01:12:42;;;;;;;15.68;8.90;;;2.60;99.90;;;;;;6124429;23;20020;-80
2023/01/23 01:15:09;;;;;;;18.65;9.82;;;2.60;99.90;;;;;;6121812;23;20056;-80
2023/01/23 01:17:35;;;;;;;22.88;10.07;;;2.60;99.90;;;;;;6148862;23;20652;-80
2023/01/23 01:20:02;;;;;;;18.35;10.48;;;2.60;99.90;;;;;;6147770;23;20018;-80
2023/01/23 01:22:27;;;;;;;17.75;9.18;;;2.60;99.90;;;;;;6150215;23;20013;-80
2023/01/23 01:24:53;;;;;;;16.17;9.43;;;2.60;99.90;;;;;;6145605;23;20045;-80
2023/01/23 01:27:19;;;;;;;16.30;10.65;;;3.20;99.90;;;;;;6147627;23;20143;-80
2023/01/23 01:29:44;;;;;;;17.60;9.48;;;2.50;99.90;;;;;;6147644;23;20051;-80
2023/01/23 01:32:10;;;;;;;17.08;9.57;;;2.60;99.90;;;;;;6149205;23;20018;-80
2023/01/23 01:34:36;;;;;;;16.88;9.55;;;2.50;99.90;;;;;;6124015;23;20014;-79
2023/01/23 01:37:01;;;;;;;18.17;10.82;;;2.50;99.90;;;;;;6125938;23;20517;-80
2023/01/23 01:39:27;;;;;;;15.00;10.50;;;2.50;99.90;;;;;;6126602;23;20041;-80
2023/01/23 01:41:52;;;;;;;15.48;10.00;;;2.50;99.90;;;;;;6124470;23;20463;-80
2023/01/23 01:44:23;;;;;;;20.85;11.35;;;2.50;99.90;;;;;;6125755;23;20458;-80
2023/01/23 01:46:49;;;;;;;19.88;9.93;;;2.50;99.90;;;;;;6149035;23;20100;-81
2023/01/23 01:49:19;;;;;;;20.77;10.88;;;2.50;99.90;;;;;;6126349;23;20025;-80
2023/01/23 01:51:49;;;;;;;15.60;9.70;;;2.50;99.90;;;;;;6150641;23;20637;-80
2023/01/23 01:54:42;;;;;;;19.63;10.10;;;2.50;99.90;;;;;;6126695;23;20017;-80
2023/01/23 01:57:32;;;;;;;18.17;10.15;;;2.50;99.90;;;;;;6150164;23;20024;-80
2023/01/23 02:00:09;;;;;;;17.65;10.65;;;2.50;99.90;;;;;;6149979;23;20009;-80
2023/01/23 02:02:40;;;;;;;18.48;10.82;;;2.50;99.90;;;;;;6150066;23;20089;-80
2023/01/23 02:05:10;;;;;;;15.70;10.70;;;2.50;99.90;;;;;;6147196;23;20343;-80
2023/01/23 02:07:41;;;;;;;13.27;9.35;;;2.50;99.90;;;;;;6150508;23;20092;-80
2023/01/23 02:10:08;;;;;;;19.95;10.50;;;2.50;99.90;;;;;;6150671;23;20028;-80
2023/01/23 02:12:34;;;;;;;16.92;10.15;;;2.60;99.90;;;;;;6150548;23;20035;-80
2023/01/23 02:15:02;;;;;;;15.07;10.30;;;2.60;99.90;;;;;;6123024;23;20450;-80
2023/01/23 02:17:30;;;;;;;18.90;9.73;;;2.60;99.90;;;;;;6126870;23;20056;-80
2023/01/23 02:20:05;;;;;;;15.90;10.05;;;2.50;99.90;;;;;;6149643;23;20093;-80
2023/01/23 02:22:49;;;;;;;15.60;10.40;;;2.60;99.90;;;;;;6151028;23;20097;-80
2023/01/23 02:25:40;;;;;;;14.70;9.48;;;2.60;99.90;;;;;;6123604;23;20013;-80
2023/01/23 02:28:06;;;;;;;16.48;9.85;;;2.60;99.90;;;;;;6126314;23;20330;-80
2023/01/23 02:30:31;;;;;;;19.98;10.05;;;2.60;99.90;;;;;;6150019;23;20017;-80
2023/01/23 02:33:30;;;;;;;14.27;9.25;;;2.60;99.90;;;;;;6150661;23;20014;-80
2023/01/23 02:36:00;;;;;;;12.23;9.38;;;2.60;99.90;;;;;;6123932;23;20017;-80
2023/01/23 02:38:34;;;;;;;16.45;9.23;;;2.60;99.90;;;;;;6125511;23;20021;-80
2023/01/23 02:41:03;;;;;;;14.25;9.82;;;2.60;99.90;;;;;;6125112;23;20010;-80
2023/01/23 02:43:34;;;;;;;15.75;10.13;;;2.60;99.90;;;;;;6125847;23;20065;-80
2023/01/23 02:46:02;;;;;;;15.50;9.82;;;2.60;99.90;;;;;;6149866;23;20021;-80
2023/01/23 02:48:27;;;;;;;19.48;10.88;;;2.60;99.90;;;;;;6151695;23;20017;-80
2023/01/23 02:50:53;;;;;;;13.73;9.93;;;2.60;99.90;;;;;;6125550;23;20028;-80
2023/01/23 02:53:19;;;;;;;17.75;9.98;;;2.50;99.90;;;;;;6151031;23;20017;-80
2023/01/23 02:55:44;;;;;;;18.63;9.43;;;2.50;99.90;;;;;;6125539;23;20017;-80
2023/01/23 03:00:54;;;;;;;17.70;10.73;;;2.50;99.90;;;;;;6149754;23;20022;-80
2023/01/23 03:03:20;;;;;;;18.15;9.93;;;2.60;99.90;;;;;;6150983;23;20100;-80
2023/01/23 03:05:46;;;;;;;17.45;9.90;;;2.50;99.90;;;;;;6124779;23;20013;-80
2023/01/23 03:08:11;;;;;;;17.48;10.43;;;2.50;99.90;;;;;;6125358;23;20016;-80
2023/01/23 03:10:37;;;;;;;16.55;10.02;;;2.50;99.90;;;;;;6124400;23;20724;-80
2023/01/23 03:13:06;;;;;;;13.95;10.05;;;2.60;99.90;;;;;;6149401;23;20013;-80
2023/01/23 03:15:33;;;;;;;21.00;9.98;;;2.50;99.90;;;;;;6148277;23;20020;-80
2023/01/23 03:17:58;;;;;;;13.57;10.00;;;2.50;99.90;;;;;;6150275;23;20020;-80
2023/01/23 03:20:26;;;;;;;24.08;10.32;;;2.50;99.90;;;;;;6149837;23;20022;-80
2023/01/23 03:22:52;;;;;;;16.15;10.52;;;2.60;99.90;;;;;;6150185;23;20017;-80
2023/01/23 03:25:18;;;;;;;20.08;9.73;;;2.60;99.90;;;;;;6147617;23;20024;-80
2023/01/23 03:27:43;;;;;;;16.55;10.88;;;2.60;99.90;;;;;;6148775;23;20049;-80
2023/01/23 03:30:14;;;;;;;18.33;11.63;;;2.60;99.90;;;;;;6123994;23;20025;-80
2023/01/23 03:32:40;;;;;;;16.05;10.02;;;2.60;99.90;;;;;;6125737;23;20069;-80
2023/01/23 03:35:15;;;;;;;16.83;10.45;;;1.90;99.90;;;;;;6146020;23;20010;-81
2023/01/23 03:37:41;;;;;;;19.02;11.02;;;2.60;99.90;;;;;;6123173;23;20674;-80
2023/01/23 03:43:02;;;;;;;19.85;11.55;;;2.50;99.90;;;;;;6148637;23;20033;-80
2023/01/23 03:45:27;;;;;;;17.15;11.27;;;2.50;99.90;;;;;;6149263;23;20451;-80
2023/01/23 03:47:53;;;;;;;22.05;11.50;;;2.50;99.90;;;;;;6125866;23;20029;-80
2023/01/23 03:50:18;;;;;;;16.67;11.30;;;2.50;99.90;;;;;;6148418;23;20081;-80
2023/01/23 03:52:44;;;;;;;21.30;11.77;;;2.50;99.90;;;;;;6125514;23;20013;-80
2023/01/23 03:55:10;;;;;;;18.38;10.98;;;2.50;99.90;;;;;;6122987;23;20013;-80
2023/01/23 03:57:35;;;;;;;15.55;11.40;;;2.50;99.90;;;;;;6150207;23;20025;-80
2023/01/23 04:00:01;;;;;;;16.52;11.20;;;2.50;99.90;;;;;;6148413;23;20071;-80
2023/01/23 04:02:28;;;;;;;19.35;11.07;;;2.40;99.90;;;;;;6149673;23;20465;-80
2023/01/23 04:04:53;;;;;;;20.65;11.25;;;2.50;99.90;;;;;;6121238;23;20025;-80
2023/01/23 04:07:19;;;;;;;19.15;11.18;;;2.40;99.90;;;;;;6149095;23;20025;-80
2023/01/23 04:09:44;;;;;;;15.15;10.90;;;2.50;99.90;;;;;;6123307;23;20018;-80
2023/01/23 04:12:10;;;;;;;17.27;11.00;;;2.50;99.90;;;;;;6148280;23;20402;-80
2023/01/23 04:14:36;;;;;;;15.43;11.32;;;2.60;99.90;;;;;;6147009;23;20454;-80
2023/01/23 04:17:06;;;;;;;17.65;10.68;;;2.60;99.90;;;;;;6125041;23;20044;-80
2023/01/23 04:19:33;;;;;;;16.98;11.70;;;2.50;99.90;;;;;;6148390;23;20029;-79
2023/01/23 04:21:58;;;;;;;17.30;12.02;;;2.60;99.90;;;;;;6125125;23;20013;-80
2023/01/23 04:24:24;;;;;;;18.48;11.07;;;2.60;99.90;;;;;;6148894;23;20394;-80
2023/01/23 04:26:50;;;;;;;17.42;11.75;;;2.70;99.90;;;;;;6123134;23;20017;-80
2023/01/23 04:29:15;;;;;;;17.70;11.90;;;2.60;99.90;;;;;;6148561;23;20013;-80
2023/01/23 04:31:41;;;;;;;17.15;12.55;;;2.70;99.90;;;;;;6148573;23;20017;-80
2023/01/23 04:34:07;;;;;;;21.23;11.40;;;2.60;99.90;;;;;;6124242;23;20013;-80
2023/01/23 04:36:33;;;;;;;17.48;12.45;;;2.60;99.90;;;;;;6149207;23;20045;-80
2023/01/23 04:38:58;;;;;;;18.30;12.45;;;2.60;99.90;;;;;;6149782;23;20022;-80
2023/01/23 04:41:27;;;;;;;21.98;12.27;;;2.60;99.90;;;;;;6125382;23;20017;-80
2023/01/23 04:43:53;;;;;;;16.95;11.52;;;2.60;99.90;;;;;;6149543;23;20025;-80
2023/01/23 04:46:18;;;;;;;14.00;11.48;;;2.60;99.90;;;;;;6123284;23;20780;-80
2023/01/23 04:48:44;;;;;;;17.92;11.90;;;2.60;99.90;;;;;;6148788;23;20013;-80
2023/01/23 04:51:10;;;;;;;14.18;11.13;;;2.60;99.90;;;;;;6125142;23;20019;-80
2023/01/23 04:53:35;;;;;;;19.13;12.02;;;2.60;99.90;;;;;;6149699;23;20506;-80
2023/01/23 04:56:02;;;;;;;18.67;11.70;;;2.60;99.90;;;;;;6149393;23;20032;-80
2023/01/23 04:58:28;;;;;;;15.60;11.20;;;2.60;99.90;;;;;;6150752;23;20440;-80
2023/01/23 05:00:53;;;;;;;21.85;11.95;;;2.60;99.90;;;;;;6124945;23;20080;-80
2023/01/23 05:03:19;;;;;;;23.92;12.82;;;2.60;99.90;;;;;;6148756;23;20026;-79
2023/01/23 05:05:46;;;;;;;17.80;12.35;;;2.60;99.90;;;;;;6118732;23;20454;-80
2023/01/23 05:08:12;;;;;;;17.65;12.20;;;2.60;99.90;;;;;;6122884;23;20454;-80
2023/01/23 05:10:38;;;;;;;16.52;12.32;;;2.60;99.90;;;;;;6150194;23;20077;-79
2023/01/23 05:13:04;;;;;;;20.00;13.52;;;2.60;99.90;;;;;;6127299;23;20013;-80
2023/01/23 05:15:30;;;;;;;17.55;12.57;;;2.60;99.90;;;;;;6148707;23;20020;-81
2023/01/23 05:17:55;;;;;;;21.73;13.23;;;2.60;99.90;;;;;;6151779;23;20009;-83
2023/01/23 05:20:22;;;;;;;22.02;13.45;;;2.60;99.90;;;;;;6152242;23;20382;-83
2023/01/23 05:22:51;;;;;;;16.48;12.45;;;2.60;99.90;;;;;;6126822;23;20018;-82
2023/01/23 05:25:22;;;;;;;15.50;12.98;;;2.50;99.90;;;;;;6150100;23;20843;-79
2023/01/23 05:27:48;;;;;;;21.38;13.15;;;2.50;99.90;;;;;;6148072;23;20017;-81
2023/01/23 05:30:15;;;;;;;21.27;14.23;;;2.50;99.90;;;;;;6126111;23;20072;-82
2023/01/23 05:32:41;;;;;;;21.25;13.70;;;2.60;99.90;;;;;;6152464;23;20582;-83
2023/01/23 05:35:07;;;;;;;19.02;13.98;;;2.50;99.90;;;;;;6124201;23;20013;-81
2023/01/23 05:37:32;;;;;;;21.92;14.35;;;2.50;99.90;;;;;;6149737;23;20021;-82
2023/01/23 05:39:58;;;;;;;23.63;13.45;;;2.50;99.90;;;;;;6152390;23;20020;-80
2023/01/23 05:42:23;;;;;;;18.35;14.30;;;2.50;99.90;;;;;;6150508;23;20017;-80
2023/01/23 05:44:49;;;;;;;19.73;14.60;;;2.50;99.90;;;;;;6148819;23;20132;-80
2023/01/23 05:47:14;;;;;;;15.48;12.95;;;2.50;99.90;;;;;;6125753;23;20013;-83
2023/01/23 05:49:40;;;;;;;18.60;14.18;;;2.50;99.90;;;;;;6121671;23;20017;-80
2023/01/23 05:52:06;;;;;;;20.33;14.40;;;2.50;99.90;;;;;;6147993;23;20020;-80
2023/01/23 05:54:32;;;;;;;20.38;14.18;;;2.50;99.90;;;;;;6147268;23;20021;-79
2023/01/23 05:56:58;;;;;;;16.88;13.45;;;2.40;99.90;;;;;;6125077;23;20019;-81
2023/01/23 05:59:23;;;;;;;17.40;13.77;;;2.40;99.90;;;;;;6149014;23;20021;-81
2023/01/23 06:01:49;;;;;;;23.58;13.50;;;2.40;99.90;;;;;;6124253;23;20021;-81
2023/01/23 06:04:15;;;;;;;18.92;13.35;;;2.40;99.90;;;;;;6124836;23;20017;-82
2023/01/23 06:06:43;;;;;;;19.15;12.73;;;2.30;99.90;;;;;;6125722;23;20024;-85
2023/01/23 06:09:10;;;;;;;19.63;12.73;;;2.40;99.90;;;;;;6148116;23;20028;-80
2023/01/23 06:11:36;;;;;;;20.77;13.40;;;2.30;99.90;;;;;;6123597;23;20017;-81
2023/01/23 06:14:02;;;;;;;20.90;13.65;;;2.40;99.90;;;;;;6148609;23;20009;-81
2023/01/23 06:16:27;;;;;;;18.52;13.90;;;2.40;99.90;;;;;;6125370;23;20017;-81
2023/01/23 06:18:53;;;;;;;16.90;14.07;;;2.30;99.90;;;;;;6149670;23;20794;-85
2023/01/23 06:21:19;;;;;;;18.70;13.48;;;2.40;99.90;;;;;;6149398;23;20032;-84
2023/01/23 06:23:45;;;;;;;18.15;13.02;;;2.40;99.90;;;;;;6150872;23;20021;-81
2023/01/23 06:26:12;;;;;;;18.33;13.32;;;2.40;99.90;;;;;;6146721;23;20013;-82
2023/01/23 06:28:37;;;;;;;19.27;13.57;;;2.40;99.90;;;;;;6148174;23;20017;-82
2023/01/23 06:31:05;;;;;;;19.65;14.82;;;2.40;99.90;;;;;;6123003;23;20009;-82
2023/01/23 06:33:31;;;;;;;20.30;14.18;;;2.40;99.90;;;;;;6126155;23;20018;-83
2023/01/23 06:36:01;;;;;;;18.65;14.00;;;2.40;99.90;;;;;;6150998;23;20020;-83
2023/01/23 06:38:28;;;;;;;16.23;13.55;;;2.40;99.90;;;;;;6126126;23;20041;-79
2023/01/23 06:40:53;;;;;;;18.90;13.15;;;2.40;99.90;;;;;;6124291;23;20086;-80
2023/01/23 06:43:20;;;;;;;21.77;14.35;;;2.50;99.90;;;;;;6149496;23;20049;-79
2023/01/23 06:45:46;;;;;;;21.77;14.25;;;2.50;99.90;;;;;;6148434;23;20024;-79
2023/01/23 06:48:12;;;;;;;20.55;14.27;;;2.50;99.90;;;;;;6126064;23;20017;-79
2023/01/23 06:50:38;;;;;;;22.15;15.32;;;2.50;99.90;;;;;;6149089;23;20036;-80
2023/01/23 06:53:04;;;;;;;24.35;15.80;;;2.50;99.90;;;;;;6149925;23;20009;-79
2023/01/23 06:55:30;;;;;;;19.48;16.10;;;2.50;99.90;;;;;;6149034;23;20674;-79
2023/01/23 06:57:56;;;;;;;25.42;15.82;;;2.50;99.90;;;;;;6124217;23;20009;-79
2023/01/23 07:00:22;;;;;;;21.55;14.88;;;2.40;99.90;;;;;;6123852;23;20049;-79
2023/01/23 07:02:48;;;;;;;20.25;14.73;;;2.40;99.90;;;;;;6124212;23;20029;-79
2023/01/23 07:05:14;;;;;;;25.35;15.45;;;2.40;99.90;;;;;;6148553;23;20018;-80
2023/01/23 07:07:39;;;;;;;19.88;15.40;;;2.50;99.90;;;;;;6150152;23;20021;-80
2023/01/23 07:10:06;;;;;;;21.13;15.88;;;2.40;99.90;;;;;;6148840;23;20023;-80
2023/01/23 07:12:31;;;;;;;21.88;15.50;;;2.40;99.90;;;;;;6124347;23;20013;-79
2023/01/23 07:14:57;;;;;;;20.65;14.70;;;2.40;99.90;;;;;;6147975;23;20016;-82
2023/01/23 07:17:22;;;;;;;23.48;15.93;;;2.40;99.90;;;;;;6149656;23;20020;-80
2023/01/23 07:19:50;;;;;;;20.42;14.90;;;2.30;99.90;;;;;;6148751;23;20676;-80
2023/01/23 07:22:17;;;;;;;22.55;15.05;;;2.40;99.90;;;;;;6124979;23;20017;-80
2023/01/23 07:24:43;;;;;;;23.45;14.05;;;2.30;99.90;;;;;;6124237;23;20024;-80
2023/01/23 07:27:08;;;;;;;22.75;14.88;;;2.30;99.90;;;;;;6148602;23;20100;-80
2023/01/23 07:29:34;;;;;;;18.83;14.73;;;2.40;99.90;;;;;;6122951;23;20085;-80
2023/01/23 07:32:00;;;;;;;20.95;14.93;;;2.40;99.90;;;;;;6124451;23;20037;-80
2023/01/23 07:34:26;;;;;;;20.67;14.65;;;2.40;99.90;;;;;;6124390;23;20006;-80
2023/01/23 07:36:51;;;;;;;19.13;14.35;;;2.30;99.90;;;;;;6124179;23;20013;-80
2023/01/23 07:39:17;;;;;;;21.80;14.95;;;2.30;99.90;;;;;;6149123;23;20013;-80
2023/01/23 07:41:42;;;;;;;19.80;14.23;;;2.40;99.90;;;;;;6148723;23;20016;-80
2023/01/23 07:44:16;;;;;;;17.65;13.02;;;2.40;99.90;;;;;;6148369;23;20021;-80
2023/01/23 07:46:42;;;;;;;19.33;14.63;;;2.40;99.90;;;;;;6123363;23;20017;-80
2023/01/23 07:49:08;;;;;;;20.25;14.63;;;2.40;99.90;;;;;;6149469;23;20017;-80
2023/01/23 07:51:34;;;;;;;17.85;13.73;;;2.40;99.90;;;;;;6123405;23;20101;-80
2023/01/23 07:53:59;;;;;;;19.48;13.57;;;2.40;99.90;;;;;;6148597;23;20513;-80
2023/01/23 07:56:25;;;;;;;17.73;14.32;;;2.40;99.90;;;;;;6148253;23;20017;-81
2023/01/23 07:58:51;;;;;;;18.58;13.85;;;2.40;99.90;;;;;;6123849;23;20530;-80
2023/01/23 08:01:18;;;;;;;22.30;13.13;;;2.30;99.90;;;;;;6116362;23;20028;-79
2023/01/23 08:03:46;;;;;;;17.63;12.95;;;2.40;99.90;;;;;;6148912;23;20331;-80
2023/01/23 08:06:12;;;;;;;16.63;13.00;;;2.40;99.90;;;;;;6122828;23;20021;-80
2023/01/23 08:08:37;;;;;;;21.30;13.50;;;2.40;99.90;;;;;;6148584;23;20009;-79
2023/01/23 08:11:12;;;;;;;22.88;14.07;;;2.40;99.90;;;;;;6148869;23;20021;-81
2023/01/23 08:13:38;;;;;;;15.85;12.45;;;2.40;99.90;;;;;;6148376;23;20420;-80
2023/01/23 08:16:04;;;;;;;19.17;12.43;;;2.50;99.90;;;;;;6122356;23;20070;-80
2023/01/23 08:18:31;;;;;;;16.95;13.40;;;2.50;99.90;;;;;;6125045;23;20014;-80
2023/01/23 08:20:58;;;;;;;18.50;12.88;;;2.50;99.90;;;;;;6148386;23;20627;-80
2023/01/23 08:23:25;;;;;;;21.67;13.00;;;2.50;99.90;;;;;;6122205;23;20028;-80
2023/01/23 08:25:55;;;;;;;16.63;12.35;;;2.50;99.90;;;;;;6120831;23;20045;-80
2023/01/23 08:28:22;;;;;;;14.20;12.57;;;2.50;99.90;;;;;;6124556;23;20048;-85
2023/01/23 08:30:48;;;;;;;15.70;12.35;;;2.50;99.90;;;;;;6120286;23;20199;-85
2023/01/23 08:33:15;;;;;;;15.32;12.15;;;2.50;99.90;;;;;;6121296;23;20045;-85
2023/01/23 08:35:51;;;;;;;16.02;12.00;;;2.50;99.90;;;;;;6119311;23;20073;-85
2023/01/23 08:38:18;;;;;;;15.35;11.60;;;2.60;99.90;;;;;;6122432;23;20037;-85
2023/01/23 08:40:45;;;;;;;13.15;11.43;;;2.60;99.90;;;;;;6121520;23;20017;-85
2023/01/23 08:43:12;;;;;;;14.98;12.02;;;2.60;99.90;;;;;;6121201;23;20021;-85
2023/01/23 08:45:39;;;;;;;15.52;11.63;;;2.60;99.90;;;;;;6121543;23;20542;-85
2023/01/23 08:48:05;;;;;;;16.60;11.98;;;2.60;99.90;;;;;;6148434;23;20013;-80
2023/01/23 08:50:31;;;;;;;13.10;11.55;;;2.60;99.90;;;;;;6148402;23;20153;-81
2023/01/23 08:52:56;;;;;;;13.43;10.57;;;2.60;99.90;;;;;;6147532;23;20017;-81
2023/01/23 08:55:22;;;;;;;15.05;10.73;;;2.70;99.90;;;;;;6146914;23;20020;-82
2023/01/23 08:57:47;;;;;;;15.65;10.85;;;2.70;99.90;;;;;;6123132;23;20116;-79
2023/01/23 09:00:37;;;;;;;17.55;12.55;;;2.70;99.90;;;;;;6155034;23;20021;-79
2023/01/23 09:03:22;;;;;;;14.23;9.82;;;2.70;99.90;;;;;;6149268;23;20068;-80
2023/01/23 09:05:48;;;;;;;17.58;10.75;;;2.80;99.90;;;;;;6118612;23;20877;-79
2023/01/23 09:08:14;;;;;;;14.77;10.27;;;2.70;99.90;;;;;;6144292;23;20451;-79
2023/01/23 09:10:39;;;;;;;13.93;9.77;;;2.80;99.90;;;;;;6119435;23;20017;-79
2023/01/23 09:13:05;;;;;;;11.32;9.43;;;2.80;99.90;;;;;;6145142;23;20020;-79
2023/01/23 09:15:31;;;;;;;12.75;9.63;;;2.80;99.90;;;;;;6145493;23;20021;-79
2023/01/23 09:17:56;;;;;;;12.48;9.50;;;2.80;99.90;;;;;;6121187;23;20010;-79
2023/01/23 09:20:25;;;;;;;15.15;9.15;;;2.80;99.90;;;;;;6145549;23;20045;-79
2023/01/23 09:22:51;;;;;;;8.90;7.97;;;2.80;99.90;;;;;;6147237;23;20044;-79
2023/01/23 09:25:17;;;;;;;11.02;8.07;;;2.80;99.90;;;;;;6121805;23;20017;-79
2023/01/23 09:27:43;;;;;;;14.25;8.48;;;2.90;99.90;;;;;;6120763;23;20620;-79
2023/01/23 09:30:09;;;;;;;11.55;8.43;;;2.80;99.90;;;;;;6146170;23;20029;-81
2023/01/23 09:32:35;;;;;;;13.68;9.73;;;2.90;99.90;;;;;;6122511;23;20005;-79
2023/01/23 09:35:00;;;;;;;10.63;8.38;;;2.90;99.90;;;;;;6147476;23;20037;-82
2023/01/23 09:37:58;;;;;;;9.32;7.97;;;3.00;99.90;;;;;;6147673;23;20010;-81
2023/01/23 09:40:17;;;;;;;9.30;7.07;;;3.00;99.90;;;;;;6147808;23;20021;-82
2023/01/23 09:42:43;;;;;;;8.65;7.82;;;3.00;99.90;;;;;;6147484;23;20088;-82
2023/01/23 09:45:14;;;;;;;10.27;7.50;;;3.00;99.90;;;;;;6123063;23;20056;-82
2023/01/23 09:48:12;;;;;;;9.65;6.85;;;3.10;99.90;;;;;;6148959;23;20029;-82
2023/01/23 09:50:51;;;;;;;8.85;7.28;;;3.10;99.90;;;;;;6076761;23;20395;-81
2023/01/23 09:53:21;;;;;;;10.70;7.85;;;3.20;99.90;;;;;;6149297;23;20108;-82
2023/01/23 09:55:58;;;;;;;8.25;6.25;;;3.30;99.90;;;;;;6123540;23;20525;-81
2023/01/23 09:58:30;;;;;;;7.82;6.97;;;3.20;99.90;;;;;;6125429;23;20036;-81
2023/01/23 10:00:56;;;;;;;8.30;7.05;;;3.20;99.90;;;;;;6149037;23;20089;-80
2023/01/23 10:03:24;;;;;;;10.07;7.28;;;3.30;99.90;;;;;;6149752;23;20045;-81
2023/01/23 10:06:16;;;;;;;7.45;6.35;;;3.30;99.90;;;;;;6148383;23;20009;-81
2023/01/23 10:09:05;;;;;;;10.63;5.95;;;3.30;99.90;;;;;;6149037;23;20041;-81
2023/01/23 10:11:58;;;;;;;7.18;5.88;;;3.20;99.90;;;;;;6124703;23;20025;-81
2023/01/23 10:15:01;;;;;;;10.50;5.78;;;3.30;99.90;;;;;;6124045;23;20025;-80
2023/01/23 10:17:44;;;;;;;6.95;5.50;;;3.30;99.90;;;;;;6149461;23;20017;-80
2023/01/23 10:20:47;;;;;;;8.05;5.90;;;3.30;99.90;;;;;;6124335;23;20056;-81
2023/01/23 10:23:22;;;;;;;9.50;5.45;;;3.30;99.90;;;;;;6150232;23;20041;-80
2023/01/23 10:25:48;;;;;;;8.13;5.57;;;3.30;99.90;;;;;;6123501;23;20018;-81
2023/01/23 10:28:40;;;;;;;7.45;5.55;;;3.30;99.90;;;;;;6125579;23;20024;-81
2023/01/23 10:31:29;;;;;;;8.65;5.80;;;3.40;99.90;;;;;;6123343;23;20056;-81
2023/01/23 10:34:05;;;;;;;5.65;5.03;;;3.40;99.90;;;;;;6125552;23;20077;-81
2023/01/23 10:36:45;;;;;;;6.72;4.50;;;3.50;99.90;;;;;;6125303;23;20013;-81
2023/01/23 10:39:21;;;;;;;6.45;4.70;;;3.50;99.90;;;;;;6124070;23;20010;-81
2023/01/23 10:41:46;;;;;;;9.10;5.68;;;3.40;99.90;;;;;;6149050;23;20463;-81
2023/01/23 10:44:18;;;;;;;6.85;4.93;;;3.40;99.90;;;;;;6124322;23;20012;-81
2023/01/23 10:46:54;;;;;;;7.07;5.18;;;3.50;99.90;;;;;;6146863;23;20784;-80
2023/01/23 10:49:36;;;;;;;5.30;4.70;;;3.50;99.90;;;;;;6124724;23;20017;-81
2023/01/23 10:52:03;;;;;;;8.15;5.03;;;3.40;99.90;;;;;;6125346;23;20013;-80
2023/01/23 10:54:29;;;;;;;6.80;4.97;;;3.50;99.90;;;;;;6148763;23;20017;-81
2023/01/23 10:56:59;;;;;;;7.78;5.97;;;3.50;99.90;;;;;;6124542;23;20332;-81
2023/01/23 10:59:36;;;;;;;7.20;5.28;;;3.50;99.90;;;;;;6149069;23;20017;-80
2023/01/23 11:02:42;;;;;;;5.90;5.30;;;3.50;99.90;;;;;;6123054;23;20006;-80
2023/01/23 11:05:30;;;;;;;7.10;4.63;;;3.50;99.90;;;;;;6144207;23;20009;-80
2023/01/23 11:07:55;;;;;;;5.55;4.72;;;3.60;99.90;;;;;;6149718;23;20339;-80
2023/01/23 11:10:22;;;;;;;10.75;5.93;;;3.60;99.90;;;;;;6147559;23;20013;-80
2023/01/23 11:12:53;;;;;;;7.00;5.47;;;3.60;99.90;;;;;;6148608;23;20450;-81
2023/01/23 11:15:31;;;;;;;6.32;4.80;;;3.60;99.90;;;;;;6148074;23;20017;-81
2023/01/23 11:17:59;;;;;;;6.07;5.22;;;3.60;99.90;;;;;;6148736;23;20013;-81
2023/01/23 11:20:36;;;;;;;7.63;5.20;;;3.60;99.90;;;;;;6148230;23;20067;-81
2023/01/23 11:23:09;;;;;;;6.97;5.45;;;3.60;99.90;;;;;;6148783;23;20009;-81
2023/01/23 11:25:43;;;;;;;6.05;4.68;;;3.60;99.90;;;;;;6146973;23;20013;-80
2023/01/23 11:28:52;;;;;;;7.07;5.88;;;3.50;99.90;;;;;;6149243;23;20017;-80
2023/01/23 11:31:21;;;;;;;5.60;5.10;;;3.60;99.90;;;;;;6140245;23;20072;-81
2023/01/23 11:33:53;;;;;;;9.52;6.20;;;3.50;99.90;;;;;;6123511;23;20509;-81
2023/01/23 11:36:25;;;;;;;8.95;6.03;;;3.60;99.90;;;;;;6146392;23;20595;-80
2023/01/23 11:39:15;;;;;;;7.55;6.35;;;3.60;99.90;;;;;;6148249;23;20088;-81
2023/01/23 11:41:42;;;;;;;6.57;5.72;;;3.60;99.90;;;;;;6148519;23;20116;-80
2023/01/23 11:44:17;;;;;;;8.70;6.05;;;3.60;99.90;;;;;;6148101;23;20462;-80
2023/01/23 11:47:03;;;;;;;8.75;5.82;;;3.60;99.90;;;;;;6146070;23;20025;-80
2023/01/23 11:50:08;;;;;;;6.13;5.53;;;3.60;99.90;;;;;;6148458;23;20018;-80
2023/01/23 11:52:35;;;;;;;6.68;5.50;;;3.60;99.90;;;;;;6147511;23;20021;-80
2023/01/23 11:55:31;;;;;;;8.30;6.32;;;3.60;99.90;;;;;;6147113;23;20072;-81
2023/01/23 11:58:13;;;;;;;8.25;5.65;;;3.60;99.90;;;;;;6148691;23;20041;-81
2023/01/23 12:01:04;;;;;;;7.80;5.97;;;3.50;99.90;;;;;;6146332;23;20028;-81
2023/01/23 12:03:51;;;;;;;7.82;5.97;;;3.60;99.90;;;;;;6124288;23;20017;-81
2023/01/23 12:06:38;;;;;;;6.93;6.30;;;3.60;99.90;;;;;;6123274;23;20018;-81
2023/01/23 12:09:15;;;;;;;7.43;6.05;;;3.60;99.90;;;;;;6124901;23;20017;-80
2023/01/23 12:12:14;;;;;;;6.55;5.78;;;3.60;99.90;;;;;;6150637;23;20022;-81
2023/01/23 12:15:04;;;;;;;9.02;5.85;;;3.60;99.90;;;;;;6126460;23;20076;-81
2023/01/23 12:17:41;;;;;;;6.63;5.97;;;3.60;99.90;;;;;;6126822;23;20056;-82
2023/01/23 12:20:38;;;;;;;6.57;6.07;;;3.60;99.90;;;;;;6125350;23;20009;-81
2023/01/23 12:23:34;;;;;;;8.98;6.57;;;3.70;99.90;;;;;;6126361;23;20009;-81
2023/01/23 12:26:18;;;;;;;9.85;6.40;;;3.60;99.90;;;;;;6147757;23;20062;-80
2023/01/23 12:28:59;;;;;;;10.70;7.03;;;3.60;99.90;;;;;;6149845;23;20016;-81
2023/01/23 12:31:32;;;;;;;7.55;6.53;;;3.60;99.90;;;;;;6122702;23;20104;-80
2023/01/23 12:34:10;;;;;;;8.40;7.00;;;3.60;99.90;;;;;;6147436;23;20009;-81
2023/01/23 12:36:57;;;;;;;7.70;6.90;;;3.60;99.90;;;;;;6123621;23;20045;-80
2023/01/23 12:39:32;;;;;;;9.68;7.45;;;3.70;99.90;;;;;;6147968;23;20014;-86
2023/01/23 12:42:07;;;;;;;7.10;6.45;;;3.70;99.90;;;;;;6126124;23;20014;-84
2023/01/23 12:44:48;;;;;;;12.13;7.90;;;3.60;99.90;;;;;;6125390;23;20035;-84
2023/01/23 12:47:26;;;;;;;8.43;7.18;;;3.70;99.90;;;;;;6125144;23;20013;-84
2023/01/23 12:49:59;;;;;;;10.45;7.65;;;3.70;99.90;;;;;;6125395;23;20458;-82
2023/01/23 12:52:31;;;;;;;9.73;7.25;;;3.70;99.90;;;;;;6151743;23;20020;-82
2023/01/23 12:55:18;;;;;;;9.95;7.57;;;3.80;99.90;;;;;;6125574;23;20014;-82
2023/01/23 12:57:50;;;;;;;12.48;7.03;;;3.80;99.90;;;;;;6125353;23;20032;-81
2023/01/23 13:00:41;;;;;;;7.53;6.82;;;3.80;99.90;;;;;;6151116;23;20462;-80
2023/01/23 13:03:31;;;;;;;9.23;7.85;;;3.80;99.90;;;;;;6151495;23;20022;-81
2023/01/23 13:05:59;;;;;;;8.00;7.20;;;3.80;99.90;;;;;;6149458;23;20394;-81